Time;durP1;ratioP1;P1;durP2;ratioP2;P2;SDS_P1;SDS_P2;PMS_P1;PMS_P2;Temp;Humidity;BMP_temperature;BMP_pressure;BME280_temperature;BME280_humidity;BME280_pressure;Samples;Min_cycle;Max_cycle;Signal;HPM_P1;HPM_P2
2022/03/16 00:02:08;;;;;;;;;;;;;;;21.79;18.68;98983.66;5053567;28;1742;-74
2022/03/16 00:04:34;;;;;;;;;;;;;;;21.45;19.19;98975.09;5037448;28;1001;-74
2022/03/16 00:06:59;;;;;;;;;;;;;;;21.14;19.34;98983.50;5018518;28;959;-74
2022/03/16 00:09:24;;;;;;;;;;;;;;;21.45;19.17;98975.94;5053580;28;1667;-74
2022/03/16 00:11:50;;;;;;;;;;;;;;;21.77;18.89;98974.78;5033984;28;1667;-74
2022/03/16 00:14:16;;;;;;;;;;;;;;;21.88;18.87;98969.78;5034313;28;1007;-74
2022/03/16 00:16:41;;;;;;;;;;;;;;;21.47;19.12;98958.53;5033969;28;1085;-74
2022/03/16 00:19:07;;;;;;;;;;;;;;;21.20;19.26;98958.38;5033979;28;1906;-74
2022/03/16 00:21:32;;;;;;;;;;;;;;;21.56;18.85;98959.63;5051410;28;1726;-74
2022/03/16 00:23:59;;;;;;;;;;;;;;;21.88;18.85;98951.97;5053957;28;1045;-74
2022/03/16 00:26:24;;;;;;;;;;;;;;;22.02;18.29;98948.94;5053919;28;1037;-74
2022/03/16 00:28:50;;;;;;;;;;;;;;;21.48;19.29;98960.94;5053591;28;1040;-74
2022/03/16 00:31:15;;;;;;;;;;;;;;;21.31;19.24;98959.91;5038228;28;1663;-74
2022/03/16 00:33:41;;;;;;;;;;;;;;;21.07;19.71;98949.59;5053315;28;1255;-74
2022/03/16 00:36:06;;;;;;;;;;;;;;;21.65;18.85;98950.63;5053776;28;991;-74
2022/03/16 00:38:34;;;;;;;;;;;;;;;21.75;18.83;98944.03;5038542;28;1906;-74
2022/03/16 00:41:01;;;;;;;;;;;;;;;21.88;18.80;98949.94;5020902;28;1866;-74
2022/03/16 00:43:26;;;;;;;;;;;;;;;21.54;19.09;98947.09;5033007;28;1109;-74
2022/03/16 00:45:52;;;;;;;;;;;;;;;21.26;19.47;98946.16;5033587;28;1031;-74
2022/03/16 00:48:17;;;;;;;;;;;;;;;21.18;19.57;98933.31;5033552;28;1015;-74
2022/03/16 00:50:43;;;;;;;;;;;;;;;21.53;19.35;98920.03;5043642;28;1742;-74
2022/03/16 00:53:09;;;;;;;;;;;;;;;21.87;18.92;98919.22;5053315;28;1101;-74
2022/03/16 00:55:34;;;;;;;;;;;;;;;22.01;18.82;98913.31;5052947;28;1032;-74
2022/03/16 00:58:01;;;;;;;;;;;;;;;22.13;18.30;98906.34;5033029;28;1048;-74
2022/03/16 01:00:26;;;;;;;;;;;;;;;21.53;19.18;98903.03;5023303;28;1910;-74
2022/03/16 01:02:53;;;;;;;;;;;;;;;21.24;19.56;98897.69;5013446;28;930;-74
2022/03/16 01:05:19;;;;;;;;;;;;;;;21.41;19.17;98901.56;5043721;28;1004;-74
2022/03/16 01:07:45;;;;;;;;;;;;;;;21.83;18.97;98908.72;5053316;28;1038;-74
2022/03/16 01:10:10;;;;;;;;;;;;;;;22.01;18.53;98910.50;5065922;28;1792;-74
2022/03/16 01:12:36;;;;;;;;;;;;;;;21.59;19.13;98901.34;5073242;28;944;-74
2022/03/16 01:15:01;;;;;;;;;;;;;;;21.39;19.13;98903.19;5058347;28;1848;-74
2022/03/16 01:17:27;;;;;;;;;;;;;;;21.30;19.35;98901.69;5053035;28;1025;-74
2022/03/16 01:19:55;;;;;;;;;;;;;;;21.74;19.08;98899.13;5045748;28;1915;-74
2022/03/16 01:22:21;;;;;;;;;;;;;;;21.99;18.57;98890.28;5052824;28;1288;-74
2022/03/16 01:24:46;;;;;;;;;;;;;;;21.98;18.69;98883.03;5032843;28;1208;-74
2022/03/16 01:27:12;;;;;;;;;;;;;;;21.42;19.34;98879.72;5013038;28;1290;-74
2022/03/16 01:29:37;;;;;;;;;;;;;;;21.32;19.61;98870.91;5012924;28;1685;-74
2022/03/16 01:32:03;;;;;;;;;;;;;;;21.52;19.00;98867.44;5013299;28;1226;-74
2022/03/16 01:34:28;;;;;;;;;;;;;;;21.75;18.82;98859.03;5013035;28;1121;-74
2022/03/16 01:36:54;;;;;;;;;;;;;;;21.90;18.81;98856.81;5012247;28;1792;-74
2022/03/16 01:39:19;;;;;;;;;;;;;;;21.46;19.26;98840.84;5012364;28;1891;-74
2022/03/16 01:41:48;;;;;;;;;;;;;;;21.31;19.59;98843.03;4996380;28;1136;-74
2022/03/16 01:44:13;;;;;;;;;;;;;;;21.04;19.90;98837.25;5013123;28;1024;-74
2022/03/16 01:46:39;;;;;;;;;;;;;;;21.67;19.19;98839.75;5013139;28;908;-74
2022/03/16 01:49:04;;;;;;;;;;;;;;;21.67;19.19;98840.56;4994777;28;1799;-74
2022/03/16 01:51:30;;;;;;;;;;;;;;;21.99;18.70;98839.28;4976968;28;1023;-74
2022/03/16 01:53:56;;;;;;;;;;;;;;;21.39;19.36;98832.41;4977224;28;1185;-74
2022/03/16 01:56:22;;;;;;;;;;;;;;;21.25;19.37;98831.34;4980594;28;2036;-74
2022/03/16 01:58:48;;;;;;;;;;;;;;;21.36;19.58;98839.75;5032726;28;1918;-74
2022/03/16 02:01:14;;;;;;;;;;;;;;;21.74;19.02;98846.09;5042315;28;1675;-74
2022/03/16 02:03:40;;;;;;;;;;;;;;;21.82;19.03;98841.97;5060399;28;1804;-74
2022/03/16 02:06:07;;;;;;;;;;;;;;;21.97;18.52;98841.75;5072002;28;1766;-74
2022/03/16 02:08:33;;;;;;;;;;;;;;;21.39;19.45;98836.03;5016423;28;1054;-74
2022/03/16 02:10:58;;;;;;;;;;;;;;;21.25;19.55;98828.50;5016427;28;1145;-74
2022/03/16 02:13:24;;;;;;;;;;;;;;;21.40;19.39;98836.84;5016866;28;1111;-74
2022/03/16 02:15:49;;;;;;;;;;;;;;;21.76;19.11;98832.34;5016490;28;1292;-74
2022/03/16 02:18:15;;;;;;;;;;;;;;;22.00;18.69;98819.00;4997997;28;1851;-74
2022/03/16 02:20:41;;;;;;;;;;;;;;;21.59;19.11;98817.16;4996671;28;1918;-74
2022/03/16 02:23:07;;;;;;;;;;;;;;;21.37;19.48;98812.22;4996777;28;889;-74
2022/03/16 02:25:32;;;;;;;;;;;;;;;21.25;19.60;98811.53;4996955;28;978;-74
2022/03/16 02:27:58;;;;;;;;;;;;;;;21.62;19.19;98809.88;5011783;28;1729;-74
2022/03/16 02:30:24;;;;;;;;;;;;;;;21.85;18.69;98806.28;4996868;28;1011;-74
2022/03/16 02:32:49;;;;;;;;;;;;;;;21.89;18.81;98811.91;4976776;28;985;-74
2022/03/16 02:35:15;;;;;;;;;;;;;;;21.36;19.59;98810.63;4962801;28;939;-74
2022/03/16 02:37:40;;;;;;;;;;;;;;;21.22;19.70;98803.06;4972598;28;1670;-74
2022/03/16 02:40:07;;;;;;;;;;;;;;;21.46;19.25;98795.53;4976874;28;1916;-74
2022/03/16 02:42:33;;;;;;;;;;;;;;;21.72;18.89;98791.91;4977168;28;977;-74
2022/03/16 02:44:58;;;;;;;;;;;;;;;21.93;18.85;98781.50;4978782;28;1009;-74
2022/03/16 02:47:24;;;;;;;;;;;;;;;21.57;19.10;98790.53;5023957;28;1770;-74
2022/03/16 02:49:50;;;;;;;;;;;;;;;21.36;19.60;98782.31;5015960;28;947;-74
2022/03/16 02:52:15;;;;;;;;;;;;;;;21.13;19.76;98789.44;5015736;28;1039;-74
2022/03/16 02:54:41;;;;;;;;;;;;;;;21.59;19.11;98788.06;5015728;28;986;-74
2022/03/16 02:57:07;;;;;;;;;;;;;;;21.99;18.66;98777.75;5034688;28;1695;-74
2022/03/16 02:59:34;;;;;;;;;;;;;;;22.01;18.92;98780.13;5035574;28;1998;-74
2022/03/16 03:01:59;;;;;;;;;;;;;;;21.28;19.69;98779.53;5035371;28;1194;-74
2022/03/16 03:04:24;;;;;;;;;;;;;;;21.21;19.72;98773.97;5080280;28;1006;-74
2022/03/16 03:06:50;;;;;;;;;;;;;;;21.43;19.62;98765.22;5078273;28;1733;-74
2022/03/16 03:09:15;;;;;;;;;;;;;;;21.77;19.10;98771.63;5075456;28;1005;-74
2022/03/16 03:11:41;;;;;;;;;;;;;;;21.92;18.81;98765.72;5075242;28;949;-74
2022/03/16 03:14:06;;;;;;;;;;;;;;;21.73;19.04;98753.06;5075259;28;1004;-74
2022/03/16 03:16:32;;;;;;;;;;;;;;;21.41;19.27;98759.19;5089036;28;1742;-74
2022/03/16 03:18:57;;;;;;;;;;;;;;;21.18;19.85;98757.84;5095108;28;1981;-74
2022/03/16 03:21:23;;;;;;;;;;;;;;;21.65;19.17;98758.03;5095373;28;977;-74
2022/03/16 03:23:48;;;;;;;;;;;;;;;21.99;18.91;98754.28;5081889;28;924;-74
2022/03/16 03:26:14;;;;;;;;;;;;;;;21.62;19.04;98750.41;5097096;28;1792;-74
2022/03/16 03:28:39;;;;;;;;;;;;;;;21.23;19.84;98748.06;5057269;28;911;-74
2022/03/16 03:31:04;;;;;;;;;;;;;;;21.25;19.80;98765.44;5057544;28;941;-74
2022/03/16 03:33:30;;;;;;;;;;;;;;;21.49;19.28;98760.69;5057160;28;975;-74
2022/03/16 03:35:56;;;;;;;;;;;;;;;21.83;18.93;98741.56;5065719;28;1730;-74
2022/03/16 03:38:21;;;;;;;;;;;;;;;21.95;18.97;98734.50;5077071;28;970;-74
2022/03/16 03:40:47;;;;;;;;;;;;;;;21.57;19.10;98734.69;5077223;28;1989;-74
2022/03/16 03:43:12;;;;;;;;;;;;;;;21.42;19.44;98732.50;5077091;28;949;-74
2022/03/16 03:45:37;;;;;;;;;;;;;;;21.47;19.41;98729.19;5071144;28;1663;-74
2022/03/16 03:48:03;;;;;;;;;;;;;;;21.68;19.21;98722.38;5057098;28;991;-74
2022/03/16 03:50:29;;;;;;;;;;;;;;;21.93;18.99;98722.78;5056896;28;930;-74
2022/03/16 03:52:54;;;;;;;;;;;;;;;21.97;18.76;98728.41;5057168;28;910;-74
2022/03/16 03:55:20;;;;;;;;;;;;;;;21.37;19.44;98718.81;5074476;28;1654;-74
2022/03/16 03:57:45;;;;;;;;;;;;;;;21.11;19.73;98723.97;5076135;28;1734;-74
2022/03/16 04:00:11;;;;;;;;;;;;;;;21.38;19.54;98712.72;5076943;28;1983;-74
2022/03/16 04:02:45;;;;;;;;;;;;;;;21.74;18.98;98724.31;5076544;28;966;-74
2022/03/16 04:05:11;;;;;;;;;;;;;;;21.81;19.03;98720.53;5074769;28;1718;-74
2022/03/16 04:07:36;;;;;;;;;;;;;;;21.82;19.07;98713.69;5056720;28;900;-74
2022/03/16 04:10:02;;;;;;;;;;;;;;;21.42;19.47;98715.50;5071571;28;964;-74
2022/03/16 04:12:27;;;;;;;;;;;;;;;21.33;19.67;98714.00;5056724;28;893;-74
2022/03/16 04:14:53;;;;;;;;;;;;;;;21.69;19.25;98727.63;5056588;28;965;-74
2022/03/16 04:17:18;;;;;;;;;;;;;;;21.84;19.01;98720.50;5074746;28;1745;-74
2022/03/16 04:19:43;;;;;;;;;;;;;;;22.02;18.74;98710.88;5076270;28;1901;-74
2022/03/16 04:22:11;;;;;;;;;;;;;;;21.50;19.34;98700.00;5076605;28;930;-74
2022/03/16 04:24:37;;;;;;;;;;;;;;;21.38;19.34;98703.41;5076278;28;924;-74
2022/03/16 04:27:02;;;;;;;;;;;;;;;21.49;19.57;98704.06;5059345;28;1690;-74
2022/03/16 04:29:29;;;;;;;;;;;;;;;21.70;19.29;98702.94;5055635;28;942;-74
2022/03/16 04:31:54;;;;;;;;;;;;;;;21.92;19.11;98709.06;5093815;28;1024;-74
2022/03/16 04:34:19;;;;;;;;;;;;;;;21.89;19.06;98698.59;5093848;28;1014;-74
2022/03/16 04:36:45;;;;;;;;;;;;;;;21.48;19.49;98706.09;5093876;28;1686;-74
2022/03/16 04:39:12;;;;;;;;;;;;;;;21.18;19.96;98701.22;5093865;28;1965;-74
2022/03/16 04:41:38;;;;;;;;;;;;;;;21.50;19.68;98705.66;5093871;28;988;-74
2022/03/16 04:44:03;;;;;;;;;;;;;;;21.81;19.29;98710.03;5093868;28;940;-74
2022/03/16 04:46:29;;;;;;;;;;;;;;;21.98;18.96;98713.00;5075202;28;1612;-74
2022/03/16 04:48:54;;;;;;;;;;;;;;;21.52;19.57;98715.34;5093817;28;958;-73
2022/03/16 04:51:19;;;;;;;;;;;;;;;21.28;19.87;98694.63;5076277;28;991;-74
2022/03/16 04:53:45;;;;;;;;;;;;;;;21.30;19.72;98697.88;5094101;28;970;-74
2022/03/16 04:56:12;;;;;;;;;;;;;;;21.66;19.20;98717.16;5094721;28;1776;-74
2022/03/16 04:58:38;;;;;;;;;;;;;;;21.95;19.23;98713.84;5103355;28;1718;-74
2022/03/16 05:01:03;;;;;;;;;;;;;;;22.00;19.06;98687.88;5113763;28;1914;-74
2022/03/16 05:03:29;;;;;;;;;;;;;;;21.41;19.73;98699.75;5085228;28;1008;-73
2022/03/16 05:05:54;;;;;;;;;;;;;;;21.16;19.67;98703.69;5075326;28;921;-74
2022/03/16 05:08:20;;;;;;;;;;;;;;;21.33;19.59;98690.53;5076036;28;945;-74
2022/03/16 05:10:45;;;;;;;;;;;;;;;21.76;19.09;98699.19;5075596;28;1090;-73
2022/03/16 05:13:10;;;;;;;;;;;;;;;22.00;19.10;98693.53;5075610;28;991;-74
2022/03/16 05:15:36;;;;;;;;;;;;;;;21.64;19.19;98682.00;5075706;28;929;-74
2022/03/16 05:18:02;;;;;;;;;;;;;;;21.16;19.82;98692.38;5076107;28;924;-74
2022/03/16 05:20:28;;;;;;;;;;;;;;;21.10;20.05;98694.09;5075215;28;1906;-74
2022/03/16 05:22:54;;;;;;;;;;;;;;;21.69;19.43;98702.13;5106754;28;1100;-74
2022/03/16 05:25:25;;;;;;;;;;;;;;;21.73;19.36;98688.72;5075215;28;917;-74
2022/03/16 05:27:51;;;;;;;;;;;;;;;21.90;19.25;98681.16;5075734;28;1058;-73
2022/03/16 05:30:16;;;;;;;;;;;;;;;21.83;18.93;98678.44;5075792;28;990;-74
2022/03/16 05:32:42;;;;;;;;;;;;;;;21.28;19.88;98674.81;5075733;28;848;-74
2022/03/16 05:35:08;;;;;;;;;;;;;;;21.27;19.48;98678.88;5075011;28;948;-74
2022/03/16 05:37:34;;;;;;;;;;;;;;;21.50;19.51;98688.66;5075604;28;723;-74
2022/03/16 05:39:59;;;;;;;;;;;;;;;21.70;19.29;98669.75;5075689;28;1922;-74
2022/03/16 05:42:25;;;;;;;;;;;;;;;21.99;19.06;98670.06;5078753;28;789;-74
2022/03/16 05:44:54;;;;;;;;;;;;;;;21.36;19.51;98649.28;5079175;28;849;-74
2022/03/16 05:47:23;;;;;;;;;;;;;;;21.31;19.82;98645.69;5079170;28;959;-74
2022/03/16 05:49:51;;;;;;;;;;;;;;;21.27;19.84;98659.06;5079402;28;812;-75
2022/03/16 05:52:19;;;;;;;;;;;;;;;21.78;19.44;98676.09;5079240;28;912;-74
2022/03/16 05:54:44;;;;;;;;;;;;;;;22.04;18.72;98682.94;5079310;28;987;-74
2022/03/16 05:57:13;;;;;;;;;;;;;;;21.78;19.14;98676.91;5079284;28;967;-74
2022/03/16 05:59:39;;;;;;;;;;;;;;;21.38;19.58;98675.91;5078710;28;1902;-74
2022/03/16 06:02:05;;;;;;;;;;;;;;;21.27;19.86;98678.88;5111236;28;948;-75
2022/03/16 06:04:30;;;;;;;;;;;;;;;21.60;19.60;98673.53;5079221;28;936;-74
2022/03/16 06:06:56;;;;;;;;;;;;;;;21.83;19.27;98672.78;5079080;28;850;-74
2022/03/16 06:09:21;;;;;;;;;;;;;;;21.98;18.98;98668.47;5079050;28;928;-74
2022/03/16 06:11:46;;;;;;;;;;;;;;;21.44;19.70;98676.22;5078777;28;1142;-74
2022/03/16 06:14:12;;;;;;;;;;;;;;;21.32;19.71;98677.63;5078966;28;1005;-74
2022/03/16 06:16:37;;;;;;;;;;;;;;;21.30;19.90;98680.88;5078564;28;929;-74
2022/03/16 06:19:03;;;;;;;;;;;;;;;21.71;19.24;98670.53;5078868;28;1910;-74
2022/03/16 06:21:31;;;;;;;;;;;;;;;21.90;19.27;98660.50;5077676;28;1342;-75
2022/03/16 06:23:57;;;;;;;;;;;;;;;21.67;19.11;98670.63;5076130;28;1264;-74
2022/03/16 06:26:22;;;;;;;;;;;;;;;21.37;19.74;98679.19;5076049;28;1268;-74
2022/03/16 06:28:47;;;;;;;;;;;;;;;21.24;19.75;98676.91;5075784;28;1248;-74
2022/03/16 06:31:13;;;;;;;;;;;;;;;21.66;19.08;98663.34;5075766;28;1220;-74
2022/03/16 06:33:38;;;;;;;;;;;;;;;21.96;18.97;98664.44;5075375;28;1319;-76
2022/03/16 06:36:04;;;;;;;;;;;;;;;21.72;19.04;98658.78;5075380;28;1225;-75
2022/03/16 06:38:29;;;;;;;;;;;;;;;21.42;19.52;98664.53;5072816;28;1221;-74
2022/03/16 06:40:55;;;;;;;;;;;;;;;21.31;19.68;98654.19;5075515;28;1909;-74
2022/03/16 06:43:21;;;;;;;;;;;;;;;21.75;19.43;98660.75;5075511;28;1232;-74
2022/03/16 06:45:46;;;;;;;;;;;;;;;21.90;19.12;98652.00;5058600;28;1285;-74
2022/03/16 06:48:12;;;;;;;;;;;;;;;21.94;18.84;98633.72;5058544;28;1340;-74
2022/03/16 06:50:37;;;;;;;;;;;;;;;21.44;19.78;98650.75;5075042;28;1287;-74
2022/03/16 06:53:03;;;;;;;;;;;;;;;21.28;19.90;98655.00;5062200;28;1269;-74
2022/03/16 06:55:28;;;;;;;;;;;;;;;21.46;19.77;98660.44;5057457;28;1279;-74
2022/03/16 06:57:54;;;;;;;;;;;;;;;21.74;19.38;98658.34;5057747;28;1287;-74
2022/03/16 07:00:19;;;;;;;;;;;;;;;21.97;19.13;98661.22;5057369;28;1910;-74
2022/03/16 07:02:54;;;;;;;;;;;;;;;21.45;19.45;98666.50;5057849;28;911;-74
2022/03/16 07:05:20;;;;;;;;;;;;;;;21.35;19.73;98658.97;5058124;28;850;-74
2022/03/16 07:07:45;;;;;;;;;;;;;;;21.34;19.78;98658.16;5057446;28;1051;-74
2022/03/16 07:10:11;;;;;;;;;;;;;;;21.76;19.38;98656.72;5057476;28;1193;-74
2022/03/16 07:12:36;;;;;;;;;;;;;;;21.87;19.04;98650.06;5054628;28;1122;-74
2022/03/16 07:15:02;;;;;;;;;;;;;;;21.85;19.36;98645.59;5057235;28;1280;-74
2022/03/16 07:17:27;;;;;;;;;;;;;;;21.46;19.68;98636.97;5057347;28;1197;-74
2022/03/16 07:19:53;;;;;;;;;;;;;;;21.28;19.67;98651.38;5056971;28;1999;-74
2022/03/16 07:22:18;;;;;;;;;;;;;;;21.61;19.51;98655.34;5057511;28;1217;-74
2022/03/16 07:24:44;;;;;;;;;;;;;;;21.75;19.49;98668.44;5072036;28;977;-74
2022/03/16 07:27:11;;;;;;;;;;;;;;;21.90;19.06;98660.50;5057313;28;926;-74
2022/03/16 07:29:38;;;;;;;;;;;;;;;22.00;19.06;98653.84;5057221;28;920;-74
2022/03/16 07:32:04;;;;;;;;;;;;;;;21.55;19.65;98657.03;5057696;28;1408;-74
2022/03/16 07:34:30;;;;;;;;;;;;;;;21.48;19.63;98657.97;5074687;28;970;-74
2022/03/16 07:36:55;;;;;;;;;;;;;;;21.38;19.87;98652.47;5074815;28;1010;-74
2022/03/16 07:39:21;;;;;;;;;;;;;;;21.53;19.63;98665.16;5074485;28;1976;-74
2022/03/16 07:41:46;;;;;;;;;;;;;;;21.80;19.14;98663.09;5074632;28;925;-74
2022/03/16 07:44:11;;;;;;;;;;;;;;;22.18;18.93;98674.22;5074585;28;1011;-74
2022/03/16 07:46:37;;;;;;;;;;;;;;;21.60;19.45;98653.72;5074983;28;988;-74
2022/03/16 07:49:03;;;;;;;;;;;;;;;21.36;19.86;98643.63;5074724;28;990;-74
2022/03/16 07:51:28;;;;;;;;;;;;;;;21.53;19.49;98642.53;5074260;28;973;-74
2022/03/16 07:53:54;;;;;;;;;;;;;;;21.83;19.42;98645.25;5074527;28;1052;-74
2022/03/16 07:56:19;;;;;;;;;;;;;;;21.91;19.30;98628.09;5074398;28;1041;-74
2022/03/16 07:58:45;;;;;;;;;;;;;;;21.57;19.59;98627.06;5074165;28;993;-74
2022/03/16 08:01:11;;;;;;;;;;;;;;;21.31;19.92;98631.53;5074170;28;1901;-75
2022/03/16 08:03:36;;;;;;;;;;;;;;;21.30;19.68;98634.81;5073331;28;1036;-74
2022/03/16 08:06:01;;;;;;;;;;;;;;;21.84;19.27;98617.72;5073916;28;1011;-74
2022/03/16 08:08:28;;;;;;;;;;;;;;;21.97;19.22;98607.38;5074312;28;1081;-74
2022/03/16 08:10:54;;;;;;;;;;;;;;;21.73;19.26;98617.91;5074393;28;945;-74
2022/03/16 08:13:19;;;;;;;;;;;;;;;21.57;19.59;98609.28;5073624;28;1020;-75
2022/03/16 08:15:45;;;;;;;;;;;;;;;21.45;19.41;98607.03;5090550;28;1357;-74
2022/03/16 08:18:10;;;;;;;;;;;;;;;21.66;19.34;98612.38;5073915;28;964;-74
2022/03/16 08:20:35;;;;;;;;;;;;;;;22.02;18.86;98606.03;5056965;28;1984;-74
2022/03/16 08:23:01;;;;;;;;;;;;;;;22.05;19.18;98605.19;5073504;28;953;-74
2022/03/16 08:25:26;;;;;;;;;;;;;;;21.58;19.58;98599.56;5073824;28;1334;-74
2022/03/16 08:27:52;;;;;;;;;;;;;;;21.51;19.47;98605.34;5073684;28;858;-74
2022/03/16 08:30:18;;;;;;;;;;;;;;;21.49;19.74;98611.41;5073256;28;844;-74
2022/03/16 08:32:43;;;;;;;;;;;;;;;21.63;19.57;98596.22;5073499;28;1153;-74
2022/03/16 08:35:11;;;;;;;;;;;;;;;21.91;19.00;98606.25;5059552;28;1106;-74
2022/03/16 08:37:36;;;;;;;;;;;;;;;22.03;18.92;98613.34;5056049;28;1148;-74
2022/03/16 08:40:02;;;;;;;;;;;;;;;21.44;19.82;98600.59;5055654;28;1930;-74
2022/03/16 08:42:28;;;;;;;;;;;;;;;21.36;19.91;98603.97;5070820;28;1233;-74
2022/03/16 08:44:54;;;;;;;;;;;;;;;21.35;19.99;98608.00;5055645;28;954;-74
2022/03/16 08:47:21;;;;;;;;;;;;;;;21.67;19.67;98608.31;5056395;28;930;-74
2022/03/16 08:49:46;;;;;;;;;;;;;;;21.93;19.17;98603.00;5055587;28;1720;-74
2022/03/16 08:52:12;;;;;;;;;;;;;;;21.47;19.64;98601.78;5055451;28;1186;-74
2022/03/16 08:54:38;;;;;;;;;;;;;;;21.29;20.03;98605.63;5055745;28;1201;-74
2022/03/16 08:57:04;;;;;;;;;;;;;;;21.37;19.87;98605.56;5056020;28;938;-74
2022/03/16 08:59:30;;;;;;;;;;;;;;;21.65;19.52;98610.75;5055883;28;1961;-74
2022/03/16 09:01:55;;;;;;;;;;;;;;;21.85;19.34;98607.97;5055818;28;1133;-74
2022/03/16 09:04:21;;;;;;;;;;;;;;;22.06;19.01;98606.78;5055966;28;882;-74
2022/03/16 09:06:48;;;;;;;;;;;;;;;21.55;19.54;98611.72;5055482;28;976;-74
2022/03/16 09:09:13;;;;;;;;;;;;;;;21.40;19.89;98604.69;5055738;28;961;-74
2022/03/16 09:11:40;;;;;;;;;;;;;;;21.50;19.68;98601.72;5054992;28;1221;-74
2022/03/16 09:14:06;;;;;;;;;;;;;;;21.82;19.54;98592.66;5055011;28;1201;-73
2022/03/16 09:16:31;;;;;;;;;;;;;;;21.94;19.33;98594.06;5055364;28;955;-74
2022/03/16 09:18:57;;;;;;;;;;;;;;;21.68;19.51;98587.25;5086323;28;1906;-74
2022/03/16 09:21:25;;;;;;;;;;;;;;;21.58;19.71;98579.72;5055650;28;994;-74
2022/03/16 09:23:52;;;;;;;;;;;;;;;21.31;19.83;98577.75;5055404;28;898;-74
2022/03/16 09:26:17;;;;;;;;;;;;;;;21.66;19.74;98577.56;5055463;28;1013;-74
2022/03/16 09:28:44;;;;;;;;;;;;;;;21.96;19.20;98573.78;5055722;28;875;-74
2022/03/16 09:31:10;;;;;;;;;;;;;;;22.11;18.96;98592.13;5055422;28;981;-73
2022/03/16 09:33:35;;;;;;;;;;;;;;;21.71;19.49;98592.06;5055166;28;1020;-74
2022/03/16 09:36:05;;;;;;;;;;;;;;;21.36;19.92;98587.00;5055442;28;953;-74
2022/03/16 09:38:30;;;;;;;;;;;;;;;21.17;20.25;98585.63;5055382;28;906;-74
2022/03/16 09:40:57;;;;;;;;;;;;;;;21.56;19.59;98577.34;5086535;28;1906;-74
2022/03/16 09:43:23;;;;;;;;;;;;;;;21.82;19.21;98581.31;5055509;28;1043;-74
2022/03/16 09:45:51;;;;;;;;;;;;;;;21.78;19.21;98574.91;5055271;28;1012;-74
2022/03/16 09:48:16;;;;;;;;;;;;;;;21.20;19.95;98579.13;5072725;28;1077;-74
2022/03/16 09:50:42;;;;;;;;;;;;;;;21.06;20.38;98578.09;5055890;28;1006;-73
2022/03/16 09:53:11;;;;;;;;;;;;;;;21.40;19.99;98582.06;5073209;28;976;-74
2022/03/16 09:55:37;;;;;;;;;;;;;;;21.75;19.44;98564.44;5056192;28;1053;-74
2022/03/16 09:58:03;;;;;;;;;;;;;;;21.88;19.31;98561.78;5072788;28;978;-74
2022/03/16 10:00:30;;;;;;;;;;;;;;;22.09;18.88;98566.25;5072805;28;1913;-74
2022/03/16 10:02:59;;;;;;;;;;;;;;;21.63;19.71;98556.59;5072503;28;970;-74
2022/03/16 10:05:25;;;;;;;;;;;;;;;21.35;20.05;98560.72;5072505;28;1040;-74
2022/03/16 10:07:53;;;;;;;;;;;;;;;21.41;19.93;98539.19;5055790;28;1240;-74
2022/03/16 10:13:15;;;;;;;;;;;;;;;21.88;19.25;98555.34;5052633;28;1043;-74
2022/03/16 10:15:42;;;;;;;;;;;;;;;21.80;19.48;98549.78;5051593;28;2157;-74
2022/03/16 10:18:07;;;;;;;;;;;;;;;21.23;20.09;98545.09;5052010;28;1014;-74
2022/03/16 10:20:39;;;;;;;;;;;;;;;21.23;20.17;98530.94;5032549;28;1914;-74
2022/03/16 10:23:06;;;;;;;;;;;;;;;21.43;20.04;98522.53;5032654;28;958;-74
2022/03/16 10:25:41;;;;;;;;;;;;;;;21.65;19.68;98525.00;5032577;28;938;-74
2022/03/16 10:28:16;;;;;;;;;;;;;;;21.99;19.25;98513.41;5018343;28;1144;-74
2022/03/16 10:30:58;;;;;;;;;;;;;;;21.57;19.61;98518.66;5036151;28;1039;-74
2022/03/16 10:33:26;;;;;;;;;;;;;;;21.31;19.98;98515.47;5036273;28;1167;-74
2022/03/16 10:36:11;;;;;;;;;;;;;;;21.17;20.15;98510.03;5035951;28;1032;-74
2022/03/16 10:38:39;;;;;;;;;;;;;;;21.64;19.55;98507.19;5036095;28;906;-74
2022/03/16 10:41:09;;;;;;;;;;;;;;;21.82;19.35;98502.00;5052110;28;1910;-75
2022/03/16 10:46:34;;;;;;;;;;;;;;;21.32;20.03;98494.44;5041860;28;974;-74
2022/03/16 10:49:05;;;;;;;;;;;;;;;21.18;20.13;98491.81;5041395;28;1010;-73
2022/03/16 10:51:31;;;;;;;;;;;;;;;21.45;20.02;98490.97;5055696;28;988;-73
2022/03/16 10:53:58;;;;;;;;;;;;;;;21.71;19.53;98501.41;5055736;28;951;-73
2022/03/16 10:56:24;;;;;;;;;;;;;;;21.99;19.33;98499.25;5017241;28;1104;-73
2022/03/16 10:58:50;;;;;;;;;;;;;;;21.54;19.86;98492.00;5055584;28;1004;-73
2022/03/16 11:01:16;;;;;;;;;;;;;;;21.17;20.38;98495.09;5055468;28;1980;-73
2022/03/16 11:03:41;;;;;;;;;;;;;;;21.37;19.98;98489.50;5055484;28;1009;-73
2022/03/16 11:06:08;;;;;;;;;;;;;;;21.63;19.83;98485.00;5055493;28;1034;-73
2022/03/16 11:08:35;;;;;;;;;;;;;;;21.85;19.56;98478.47;5015311;28;1013;-73
2022/03/16 11:11:01;;;;;;;;;;;;;;;21.87;19.38;98474.41;5035307;28;1176;-73
2022/03/16 11:13:30;;;;;;;;;;;;;;;21.30;20.17;98482.75;4996211;28;980;-73
2022/03/16 11:15:56;;;;;;;;;;;;;;;21.11;20.33;98477.78;5015564;28;985;-73
2022/03/16 11:18:23;;;;;;;;;;;;;;;21.25;20.35;98486.03;5015320;28;1019;-74
2022/03/16 11:20:52;;;;;;;;;;;;;;;21.57;19.80;98474.16;5015234;28;1981;-74
2022/03/16 11:26:06;;;;;;;;;;;;;;;21.53;19.88;98475.47;4981822;28;933;-74
2022/03/16 11:28:54;;;;;;;;;;;;;;;21.27;20.02;98475.09;4995646;28;998;-74
2022/03/16 11:31:27;;;;;;;;;;;;;;;21.01;20.68;98481.59;4979432;28;1016;-74
2022/03/16 11:33:53;;;;;;;;;;;;;;;21.53;20.01;98478.28;4983070;28;984;-74
2022/03/16 11:36:38;;;;;;;;;;;;;;;21.70;19.69;98474.31;4976196;28;1024;-74
2022/03/16 11:39:14;;;;;;;;;;;;;;;21.67;19.24;98441.22;4976023;28;1975;-74
2022/03/16 11:41:43;;;;;;;;;;;;;;;21.66;19.70;98470.78;4976113;28;982;-74
2022/03/16 11:44:26;;;;;;;;;;;;;;;21.40;19.91;98463.16;4973627;28;966;-75
2022/03/16 11:46:52;;;;;;;;;;;;;;;21.14;20.27;98468.47;4975689;28;1052;-74
2022/03/16 11:49:30;;;;;;;;;;;;;;;21.58;19.95;98463.63;4956311;29;1018;-74
2022/03/16 11:52:02;;;;;;;;;;;;;;;21.74;19.58;98455.22;5009961;28;1053;-74
2022/03/16 11:54:46;;;;;;;;;;;;;;;21.96;19.13;98454.78;5031204;28;1106;-74
2022/03/16 11:57:13;;;;;;;;;;;;;;;21.58;19.93;98460.81;5014449;28;1166;-74
2022/03/16 11:59:48;;;;;;;;;;;;;;;21.16;20.45;98451.84;5014718;28;1910;-74
2022/03/16 12:02:16;;;;;;;;;;;;;;;21.22;20.16;98452.94;5014208;28;1052;-74
2022/03/16 12:04:43;;;;;;;;;;;;;;;21.73;19.74;98450.00;5004699;28;1297;-74
2022/03/16 12:07:10;;;;;;;;;;;;;;;21.90;19.18;98440.31;5004054;28;1297;-74
2022/03/16 12:09:38;;;;;;;;;;;;;;;21.59;19.48;98442.56;4988536;28;1249;-74
2022/03/16 12:15:00;;;;;;;;;;;;;;;21.05;20.45;98448.41;5005907;28;1116;-74
2022/03/16 12:17:25;;;;;;;;;;;;;;;21.49;20.01;98449.25;5003163;28;1288;-74
2022/03/16 12:20:26;;;;;;;;;;;;;;;21.82;19.48;98439.69;5007874;28;1981;-74
2022/03/16 12:22:52;;;;;;;;;;;;;;;21.97;19.38;98423.19;4984856;28;1021;-74
2022/03/16 12:25:27;;;;;;;;;;;;;;;21.45;19.96;98431.50;4975282;28;1065;-74
2022/03/16 12:30:41;;;;;;;;;;;;;;;21.42;20.17;98449.38;4994338;28;1087;-74
2022/03/16 12:33:09;;;;;;;;;;;;;;;21.27;19.93;98380.88;4994377;28;1382;-74
2022/03/16 12:35:34;;;;;;;;;;;;;;;21.84;19.59;98436.41;4994646;28;993;-74
2022/03/16 12:38:01;;;;;;;;;;;;;;;21.84;19.55;98436.41;4994519;28;1130;-74
2022/03/16 12:40:27;;;;;;;;;;;;;;;21.33;19.96;98441.44;4994305;28;1911;-74
2022/03/16 12:42:59;;;;;;;;;;;;;;;21.12;20.37;98448.25;4994491;28;1015;-74
2022/03/16 12:45:25;;;;;;;;;;;;;;;21.43;20.12;98450.97;4994469;28;985;-74
2022/03/16 12:47:55;;;;;;;;;;;;;;;21.70;19.48;98440.31;5013852;28;1036;-74
2022/03/16 12:50:22;;;;;;;;;;;;;;;21.89;19.65;98433.06;5013393;28;1029;-74
2022/03/16 12:52:50;;;;;;;;;;;;;;;21.75;19.67;98431.31;5010906;28;1004;-74
2022/03/16 12:55:17;;;;;;;;;;;;;;;21.29;20.22;98435.81;5013894;28;994;-74
2022/03/16 12:57:55;;;;;;;;;;;;;;;21.10;20.29;98428.09;5010834;28;976;-74
2022/03/16 13:00:21;;;;;;;;;;;;;;;21.52;20.09;98431.41;5012100;28;1906;-74
2022/03/16 13:02:47;;;;;;;;;;;;;;;21.75;19.49;98413.53;4994142;28;1000;-74
2022/03/16 13:05:17;;;;;;;;;;;;;;;21.84;19.42;98414.53;5009847;28;1025;-74
2022/03/16 13:07:43;;;;;;;;;;;;;;;21.98;19.43;98407.00;4993604;28;1049;-74
2022/03/16 13:10:09;;;;;;;;;;;;;;;21.46;20.18;98399.97;4993893;28;960;-74
2022/03/16 13:12:34;;;;;;;;;;;;;;;21.24;20.11;98413.69;5004177;28;1186;-74